createdAt,value
2022-08-24T00:00:43.200Z,23.36
2022-08-24T00:01:43.199Z,23.36
2022-08-24T00:02:43.309Z,23.28
2022-08-24T00:03:43.215Z,23.23
2022-08-24T00:04:43.189Z,23.29
2022-08-24T00:05:43.192Z,23.25
2022-08-24T00:06:43.191Z,23.25
2022-08-24T00:07:43.193Z,23.36
2022-08-24T00:08:43.174Z,23.41
2022-08-24T00:09:43.171Z,23.39
2022-08-24T00:10:43.208Z,23.45
2022-08-24T00:11:43.192Z,23.51
2022-08-24T00:12:43.161Z,23.44
2022-08-24T00:13:43.208Z,23.51
2022-08-24T00:14:43.203Z,23.49
2022-08-24T00:15:43.159Z,23.49
2022-08-24T00:16:43.221Z,23.51
2022-08-24T00:17:43.204Z,23.51
2022-08-24T00:18:43.176Z,23.51
2022-08-24T00:19:43.208Z,23.46
2022-08-24T00:20:45.189Z,23.41
2022-08-24T00:21:43.144Z,23.41
2022-08-24T00:22:43.157Z,23.37
2022-08-24T00:23:43.192Z,23.36
2022-08-24T00:24:43.189Z,23.31
2022-08-24T00:25:43.170Z,23.34
2022-08-24T00:26:43.184Z,23.25
2022-08-24T00:27:43.188Z,23.23
2022-08-24T00:28:43.214Z,23.33
2022-08-24T00:29:43.200Z,23.34
2022-08-24T00:30:43.185Z,23.21
2022-08-24T00:31:43.240Z,23.22
2022-08-24T00:32:43.123Z,23.18
2022-08-24T00:33:43.167Z,23.10
2022-08-24T00:34:45.927Z,22.99
2022-08-24T00:35:43.133Z,22.88
2022-08-24T00:36:43.122Z,22.91
2022-08-24T00:37:43.147Z,22.98
2022-08-24T00:38:43.121Z,23.03
2022-08-24T00:39:43.120Z,23.04
2022-08-24T00:40:43.119Z,23.04
2022-08-24T00:41:43.111Z,23.10
2022-08-24T00:42:43.138Z,23.08
2022-08-24T00:43:43.109Z,23.06
2022-08-24T00:44:43.104Z,23.11
2022-08-24T00:45:43.158Z,23.13
2022-08-24T00:46:43.102Z,23.17
2022-08-24T00:47:43.145Z,23.15
2022-08-24T00:48:43.108Z,23.11
2022-08-24T00:49:43.127Z,23.11
2022-08-24T00:50:43.133Z,23.13
2022-08-24T00:51:43.118Z,23.11
2022-08-24T00:52:43.110Z,23.15
2022-08-24T00:53:43.120Z,23.13
2022-08-24T00:54:46.304Z,23.07
2022-08-24T00:55:43.125Z,23.10
2022-08-24T00:56:43.134Z,23.21
2022-08-24T00:57:43.103Z,23.21
2022-08-24T00:58:43.107Z,23.14
2022-08-24T00:59:43.114Z,23.14
2022-08-24T01:00:45.536Z,23.18
2022-08-24T01:01:43.236Z,23.11
2022-08-24T01:02:43.192Z,23.14
2022-08-24T01:03:43.119Z,23.04
2022-08-24T01:04:43.077Z,22.99
2022-08-24T01:05:43.154Z,23.03
2022-08-24T01:06:43.124Z,22.98
2022-08-24T01:07:43.081Z,23.01
2022-08-24T01:08:43.097Z,22.99
2022-08-24T01:09:43.066Z,22.98
2022-08-24T01:10:43.076Z,23.01
2022-08-24T01:11:43.088Z,23.01
2022-08-24T01:12:48.225Z,22.98
2022-08-24T01:13:43.094Z,22.93
2022-08-24T01:14:43.093Z,22.88
2022-08-24T01:15:43.047Z,22.89
2022-08-24T01:16:43.138Z,22.76
2022-08-24T01:17:43.091Z,22.89
2022-08-24T01:18:43.047Z,22.81
2022-08-24T01:19:43.082Z,22.77
2022-08-24T01:20:43.043Z,22.80
2022-08-24T01:21:43.042Z,22.83
2022-08-24T01:22:43.080Z,22.85
2022-08-24T01:23:43.048Z,22.77
2022-08-24T01:24:43.065Z,22.77
2022-08-24T01:25:43.064Z,22.77
2022-08-24T01:26:43.055Z,22.76
2022-08-24T01:27:43.056Z,22.70
2022-08-24T01:28:43.036Z,22.78
2022-08-24T01:29:43.032Z,22.73
2022-08-24T01:30:43.050Z,22.62
2022-08-24T01:31:43.146Z,22.53
2022-08-24T01:32:43.067Z,22.25
2022-08-24T01:33:43.034Z,22.25
2022-08-24T01:34:43.042Z,22.21
2022-08-24T01:35:43.053Z,22.27
2022-08-24T01:36:43.029Z,22.27
2022-08-24T01:37:43.023Z,22.27
2022-08-24T01:38:43.047Z,22.23
2022-08-24T01:39:43.036Z,22.25
2022-08-24T01:40:43.019Z,22.36
2022-08-24T01:41:43.013Z,22.40
2022-08-24T01:42:43.006Z,22.43
2022-08-24T01:43:43.065Z,22.56
2022-08-24T01:44:42.998Z,22.51
2022-08-24T01:45:43.052Z,22.55
2022-08-24T01:46:43.110Z,22.58
2022-08-24T01:47:43.020Z,22.55
2022-08-24T01:48:42.991Z,22.52
2022-08-24T01:49:42.990Z,22.52
2022-08-24T01:50:43.012Z,22.55
2022-08-24T01:51:43.011Z,22.56
2022-08-24T01:53:03.946Z,22.49
2022-08-24T01:53:43.052Z,22.55
2022-08-24T01:54:43.477Z,22.59
2022-08-24T01:55:43.006Z,22.55
2022-08-24T01:56:42.999Z,22.53
2022-08-24T01:57:42.971Z,22.55
2022-08-24T01:58:42.968Z,22.49
2022-08-24T01:59:43.008Z,22.49
2022-08-24T02:00:42.959Z,22.51
2022-08-24T02:01:43.056Z,22.49
2022-08-24T02:02:43.073Z,22.46
2022-08-24T02:03:42.968Z,22.44
2022-08-24T02:04:44.377Z,22.40
2022-08-24T02:05:42.979Z,22.31
2022-08-24T02:06:42.980Z,22.27
2022-08-24T02:07:42.955Z,22.28
2022-08-24T02:08:42.976Z,22.30
2022-08-24T02:09:42.947Z,22.28
2022-08-24T02:10:48.695Z,22.34
2022-08-24T02:11:42.963Z,22.22
2022-08-24T02:12:42.977Z,22.22
2022-08-24T02:13:42.938Z,22.11
2022-08-24T02:14:42.961Z,22.09
2022-08-24T02:15:43.032Z,22.15
2022-08-24T02:16:42.979Z,22.22
2022-08-24T02:17:42.935Z,22.23
2022-08-24T02:18:42.931Z,22.15
2022-08-24T02:19:42.931Z,22.23
2022-08-24T02:20:42.961Z,22.22
2022-08-24T02:21:42.948Z,22.22
2022-08-24T02:22:42.923Z,22.18
2022-08-24T02:23:42.935Z,22.21
2022-08-24T02:24:42.907Z,22.15
2022-08-24T02:25:42.936Z,22.23
2022-08-24T02:26:42.917Z,22.16
2022-08-24T02:27:42.897Z,22.16
2022-08-24T02:28:42.908Z,22.06
2022-08-24T02:29:42.919Z,22.09
2022-08-24T02:30:43.018Z,22.03
2022-08-24T02:31:49.840Z,21.97
2022-08-24T02:32:42.921Z,21.96
2022-08-24T02:33:42.890Z,21.84
2022-08-24T02:34:42.935Z,21.98
2022-08-24T02:35:42.879Z,21.97
2022-08-24T02:36:42.916Z,21.96
2022-08-24T02:37:43.749Z,22.07
2022-08-24T02:38:42.955Z,22.01
2022-08-24T02:39:42.969Z,21.93
2022-08-24T02:40:42.925Z,21.91
2022-08-24T02:41:42.911Z,21.90
2022-08-24T02:42:42.882Z,21.91
2022-08-24T02:43:42.908Z,21.90
2022-08-24T02:44:42.860Z,21.91
2022-08-24T02:45:44.519Z,21.98
2022-08-24T02:46:42.943Z,21.94
2022-08-24T02:47:42.894Z,22.00
2022-08-24T02:48:42.875Z,21.94
2022-08-24T02:49:42.849Z,21.94
2022-08-24T02:50:42.885Z,21.93
2022-08-24T02:51:44.214Z,21.97
2022-08-24T02:52:42.853Z,21.93
2022-08-24T02:53:42.841Z,22.00
2022-08-24T02:54:42.859Z,22.03
2022-08-24T02:55:42.835Z,22.03
2022-08-24T02:56:42.836Z,21.93
2022-08-24T02:57:42.879Z,21.98
2022-08-24T02:58:42.846Z,22.01
2022-08-24T02:59:42.841Z,21.97
2022-08-24T03:00:42.873Z,21.94
2022-08-24T03:01:42.855Z,21.93
2022-08-24T03:02:42.928Z,21.97
2022-08-24T03:03:42.821Z,21.96
2022-08-24T03:04:42.822Z,21.94
2022-08-24T03:05:42.835Z,21.94
2022-08-24T03:06:42.831Z,21.84
2022-08-24T03:07:42.812Z,21.90
2022-08-24T03:08:42.862Z,21.90
2022-08-24T03:09:42.815Z,21.78
2022-08-24T03:10:42.853Z,21.80
2022-08-24T03:11:45.198Z,21.71
2022-08-24T03:12:42.800Z,21.78
2022-08-24T03:13:42.869Z,21.67
2022-08-24T03:14:42.800Z,21.67
2022-08-24T03:15:42.869Z,21.66
2022-08-24T03:16:42.803Z,21.60
2022-08-24T03:17:43.029Z,21.58
2022-08-24T03:18:42.839Z,21.50
2022-08-24T03:19:42.795Z,21.50
2022-08-24T03:20:42.804Z,21.47
2022-08-24T03:21:42.811Z,21.51
2022-08-24T03:22:42.806Z,21.59
2022-08-24T03:23:42.764Z,21.62
2022-08-24T03:24:42.757Z,21.55
2022-08-24T03:25:42.809Z,21.53
2022-08-24T03:26:44.256Z,21.59
2022-08-24T03:27:42.766Z,21.65
2022-08-24T03:28:45.102Z,21.62
2022-08-24T03:29:42.851Z,21.56
2022-08-24T03:30:42.869Z,21.53
2022-08-24T03:31:42.778Z,21.51
2022-08-24T03:32:42.769Z,21.58
2022-08-24T03:33:42.784Z,21.51
2022-08-24T03:34:42.774Z,21.45
2022-08-24T03:35:42.738Z,21.51
2022-08-24T03:36:42.726Z,21.47
2022-08-24T03:37:42.745Z,21.47
2022-08-24T03:38:42.768Z,21.43
2022-08-24T03:39:42.792Z,21.41
2022-08-24T03:40:42.715Z,21.43
2022-08-24T03:41:42.786Z,21.32
2022-08-24T03:42:42.780Z,21.45
2022-08-24T03:43:42.738Z,21.41
2022-08-24T03:44:42.721Z,21.45
2022-08-24T03:45:42.801Z,21.48
2022-08-24T03:46:42.780Z,21.41
2022-08-24T03:47:43.410Z,21.50
2022-08-24T03:48:42.709Z,21.45
2022-08-24T03:49:42.692Z,21.55
2022-08-24T03:50:42.706Z,21.48
2022-08-24T03:51:42.726Z,21.45
2022-08-24T03:52:42.786Z,21.37
2022-08-24T03:53:43.043Z,21.41
2022-08-24T03:54:42.717Z,21.38
2022-08-24T03:55:42.702Z,21.34
2022-08-24T03:56:42.747Z,21.35
2022-08-24T03:57:42.786Z,21.23
2022-08-24T03:58:42.719Z,21.23
2022-08-24T03:59:46.375Z,21.29
2022-08-24T04:00:42.663Z,21.35
2022-08-24T04:01:42.726Z,21.37
2022-08-24T04:02:42.698Z,21.34
2022-08-24T04:03:42.759Z,21.30
2022-08-24T04:04:42.672Z,21.26
2022-08-24T04:05:42.680Z,21.20
2022-08-24T04:06:42.689Z,21.28
2022-08-24T04:07:42.683Z,21.25
2022-08-24T04:08:42.695Z,21.19
2022-08-24T04:09:42.685Z,21.19
2022-08-24T04:10:42.644Z,21.20
2022-08-24T04:11:42.652Z,21.22
2022-08-24T04:12:42.694Z,21.18
2022-08-24T04:13:42.636Z,21.19
2022-08-24T04:14:42.616Z,21.20
2022-08-24T04:15:42.624Z,21.18
2022-08-24T04:16:42.749Z,21.07
2022-08-24T04:17:42.630Z,21.14
2022-08-24T04:18:42.609Z,21.13
2022-08-24T04:19:42.601Z,21.11
2022-08-24T04:20:42.638Z,21.11
2022-08-24T04:21:42.607Z,21.10
2022-08-24T04:22:42.610Z,20.98
2022-08-24T04:23:46.890Z,20.85
2022-08-24T04:24:42.616Z,20.77
2022-08-24T04:25:42.644Z,20.83
2022-08-24T04:26:45.480Z,20.86
2022-08-24T04:27:42.611Z,20.88
2022-08-24T04:28:42.651Z,20.82
2022-08-24T04:29:42.576Z,20.73
2022-08-24T04:30:42.582Z,20.64
2022-08-24T04:31:42.665Z,20.64
2022-08-24T04:32:42.603Z,20.82
2022-08-24T04:33:42.610Z,20.86
2022-08-24T04:34:42.625Z,20.79
2022-08-24T04:35:42.556Z,20.74
2022-08-24T04:36:42.588Z,20.65
2022-08-24T04:37:42.551Z,20.63
2022-08-24T04:38:42.552Z,20.70
2022-08-24T04:39:42.676Z,20.73
2022-08-24T04:40:42.569Z,20.85
2022-08-24T04:41:42.554Z,20.83
2022-08-24T04:42:42.666Z,20.77
2022-08-24T04:43:42.562Z,20.83
2022-08-24T04:44:42.591Z,20.79
2022-08-24T04:45:42.649Z,20.85
2022-08-24T04:46:42.556Z,20.90
2022-08-24T04:47:42.628Z,20.88
2022-08-24T04:48:42.513Z,20.83
2022-08-24T04:49:42.510Z,20.85
2022-08-24T04:50:42.512Z,20.86
2022-08-24T04:51:42.539Z,21.05
2022-08-24T04:52:42.505Z,20.98
2022-08-24T04:53:42.548Z,20.98
2022-08-24T04:54:42.572Z,20.95
2022-08-24T04:55:42.513Z,20.92
2022-08-24T04:56:42.494Z,20.80
2022-08-24T04:57:42.490Z,20.85
2022-08-24T04:58:42.524Z,20.93
2022-08-24T04:59:42.513Z,20.88
2022-08-24T05:00:42.513Z,20.88
2022-08-24T05:01:42.596Z,20.93
2022-08-24T05:02:45.022Z,21.01
2022-08-24T05:03:42.467Z,21.04
2022-08-24T05:04:42.504Z,21.00
2022-08-24T05:05:42.460Z,21.03
2022-08-24T05:06:42.459Z,21.03
2022-08-24T05:07:42.484Z,21.00
2022-08-24T05:08:42.463Z,21.03
2022-08-24T05:09:42.464Z,20.86
2022-08-24T05:10:42.464Z,20.86
2022-08-24T05:11:42.503Z,20.93
2022-08-24T05:12:42.441Z,20.83
2022-08-24T05:13:42.463Z,20.86
2022-08-24T05:14:42.434Z,20.90
2022-08-24T05:15:42.497Z,21.01
2022-08-24T05:16:45.704Z,21.00
2022-08-24T05:17:42.448Z,21.04
2022-08-24T05:18:42.436Z,21.07
2022-08-24T05:19:42.419Z,21.07
2022-08-24T05:20:42.449Z,21.03
2022-08-24T05:21:42.430Z,21.03
2022-08-24T05:22:42.485Z,21.01
2022-08-24T05:23:42.851Z,21.04
2022-08-24T05:24:42.419Z,21.08
2022-08-24T05:25:42.408Z,21.07
2022-08-24T05:26:42.420Z,21.08
2022-08-24T05:27:42.388Z,21.01
2022-08-24T05:28:42.387Z,20.98
2022-08-24T05:29:42.388Z,21.04
2022-08-24T05:30:42.957Z,21.08
2022-08-24T05:31:42.416Z,21.11
2022-08-24T05:32:42.404Z,21.04
2022-08-24T05:33:42.368Z,21.04
2022-08-24T05:34:42.376Z,21.04
2022-08-24T05:35:43.843Z,21.01
2022-08-24T05:36:42.392Z,21.04
2022-08-24T05:37:42.371Z,21.10
2022-08-24T05:38:42.443Z,21.03
2022-08-24T05:39:42.422Z,21.04
2022-08-24T05:40:42.391Z,21.05
2022-08-24T05:41:44.194Z,21.10
2022-08-24T05:42:42.346Z,21.07
2022-08-24T05:43:42.364Z,21.10
2022-08-24T05:44:42.342Z,21.03
2022-08-24T05:45:42.348Z,20.98
2022-08-24T05:46:42.402Z,20.97
2022-08-24T05:47:42.341Z,21.04
2022-08-24T05:48:42.360Z,21.11
2022-08-24T05:49:42.353Z,21.07
2022-08-24T05:50:42.334Z,21.07
2022-08-24T05:51:42.346Z,21.11
2022-08-24T05:52:42.404Z,21.10
2022-08-24T05:53:42.327Z,21.05
2022-08-24T05:54:43.057Z,21.04
2022-08-24T05:55:42.338Z,21.03
2022-08-24T05:56:42.399Z,21.01
2022-08-24T05:57:42.361Z,21.03
2022-08-24T05:58:42.331Z,20.65
2022-08-24T05:59:42.316Z,20.75
2022-08-24T06:00:42.321Z,20.82
2022-08-24T06:01:45.148Z,20.90
2022-08-24T06:02:42.401Z,20.89
2022-08-24T06:03:42.324Z,21.00
2022-08-24T06:04:42.326Z,21.11
2022-08-24T06:05:42.281Z,21.11
2022-08-24T06:06:42.279Z,21.16
2022-08-24T06:07:42.298Z,21.08
2022-08-24T06:08:42.272Z,21.04
2022-08-24T06:09:42.338Z,21.04
2022-08-24T06:10:42.267Z,21.10
2022-08-24T06:11:42.271Z,21.11
2022-08-24T06:12:42.282Z,21.23
2022-08-24T06:13:42.277Z,21.23
2022-08-24T06:14:42.275Z,21.26
2022-08-24T06:15:42.726Z,21.23
2022-08-24T06:16:42.346Z,21.30
2022-08-24T06:17:42.443Z,21.41
2022-08-24T06:18:42.251Z,21.40
2022-08-24T06:19:42.248Z,21.38
2022-08-24T06:20:42.237Z,21.37
2022-08-24T06:21:42.233Z,21.41
2022-08-24T06:22:42.253Z,21.41
2022-08-24T06:23:42.236Z,21.41
2022-08-24T06:24:42.251Z,21.37
2022-08-24T06:25:42.248Z,21.43
2022-08-24T06:26:42.224Z,21.38
2022-08-24T06:27:42.270Z,21.32
2022-08-24T06:28:42.223Z,21.34
2022-08-24T06:29:42.237Z,21.38
2022-08-24T06:30:42.246Z,21.38
2022-08-24T06:31:42.288Z,21.32
2022-08-24T06:32:42.208Z,21.37
2022-08-24T06:33:42.213Z,21.23
2022-08-24T06:34:42.251Z,21.35
2022-08-24T06:35:46.640Z,21.32
2022-08-24T06:36:42.187Z,21.32
2022-08-24T06:37:42.236Z,21.37
2022-08-24T06:38:42.186Z,21.38
2022-08-24T06:39:42.202Z,21.44
2022-08-24T06:40:42.191Z,21.47
2022-08-24T06:41:42.181Z,21.47
2022-08-24T06:42:42.203Z,21.59
2022-08-24T06:43:42.168Z,21.59
2022-08-24T06:44:42.205Z,21.66
2022-08-24T06:45:43.928Z,21.77
2022-08-24T06:46:42.221Z,21.81
2022-08-24T06:47:42.185Z,21.91
2022-08-24T06:48:42.178Z,22.03
2022-08-24T06:49:42.180Z,22.11
2022-08-24T06:50:42.159Z,22.09
2022-08-24T06:51:42.159Z,22.19
2022-08-24T06:52:42.207Z,22.33
2022-08-24T06:53:42.155Z,22.53
2022-08-24T06:54:42.187Z,22.91
2022-08-24T06:55:42.154Z,23.42
2022-08-24T06:56:42.143Z,23.76
2022-08-24T06:57:42.155Z,24.33
2022-08-24T06:58:42.164Z,24.44
2022-08-24T06:59:42.166Z,24.56
2022-08-24T07:00:42.143Z,24.78
2022-08-24T07:01:42.232Z,25.19
2022-08-24T07:02:42.162Z,25.52
2022-08-24T07:03:42.150Z,26.01
2022-08-24T07:04:42.154Z,26.33
2022-08-24T07:05:42.147Z,26.26
2022-08-24T07:06:42.130Z,26.46
2022-08-24T07:07:42.135Z,26.34
2022-08-24T07:08:42.160Z,26.38
2022-08-24T07:09:42.174Z,26.38
2022-08-24T07:10:42.168Z,26.78
2022-08-24T07:11:42.123Z,27.16
2022-08-24T07:12:42.122Z,27.41
2022-08-24T07:13:42.135Z,27.69
2022-08-24T07:14:42.135Z,27.80
2022-08-24T07:15:42.150Z,27.73
2022-08-24T07:16:42.135Z,27.85
2022-08-24T07:17:42.171Z,27.78
2022-08-24T07:18:45.017Z,27.83
2022-08-24T07:19:42.125Z,27.95
2022-08-24T07:20:42.159Z,27.79
2022-08-24T07:21:42.160Z,27.73
2022-08-24T07:22:42.162Z,27.85
2022-08-24T07:23:42.924Z,27.93
2022-08-24T07:24:42.141Z,28.01
2022-08-24T07:25:46.238Z,27.95
2022-08-24T07:26:42.172Z,27.90
2022-08-24T07:27:42.136Z,27.69
2022-08-24T07:28:42.149Z,27.49
2022-08-24T07:29:50.758Z,27.31
2022-08-24T07:30:42.209Z,27.53
2022-08-24T07:31:42.177Z,27.64
2022-08-24T07:32:42.188Z,27.79
2022-08-24T07:33:42.183Z,27.82
2022-08-24T07:34:42.147Z,28.07
2022-08-24T07:35:42.161Z,27.87
2022-08-24T07:36:44.470Z,27.72
2022-08-24T07:37:42.161Z,27.27
2022-08-24T07:38:42.189Z,27.26
2022-08-24T07:39:42.157Z,27.47
2022-08-24T07:41:05.148Z,27.69
2022-08-24T07:42:13.368Z,27.85
2022-08-24T07:42:42.202Z,28.05
2022-08-24T07:43:43.081Z,28.19
2022-08-24T07:44:42.197Z,28.19
2022-08-24T07:45:42.174Z,27.91
2022-08-24T07:46:42.289Z,27.61
2022-08-24T07:47:52.131Z,27.54
2022-08-24T07:48:42.182Z,27.53
2022-08-24T07:49:42.217Z,27.85
2022-08-24T07:50:42.226Z,27.80
2022-08-24T07:51:46.642Z,27.93
2022-08-24T07:52:42.245Z,27.93
2022-08-24T07:53:53.469Z,28.05
2022-08-24T07:54:42.237Z,27.98
2022-08-24T07:55:46.274Z,28.05
2022-08-24T07:56:42.224Z,28.05
2022-08-24T07:57:42.246Z,28.03
2022-08-24T07:58:42.269Z,28.05
2022-08-24T07:59:42.270Z,28.09
2022-08-24T08:00:42.223Z,27.95
2022-08-24T08:01:42.350Z,28.03
2022-08-24T08:02:42.299Z,28.09
2022-08-24T08:03:42.236Z,28.22
2022-08-24T08:04:42.253Z,28.22
2022-08-24T08:05:42.256Z,28.40
2022-08-24T08:06:42.274Z,28.40
2022-08-24T08:07:42.290Z,28.65
2022-08-24T08:08:42.271Z,28.52
2022-08-24T08:09:42.287Z,28.56
2022-08-24T08:10:42.294Z,28.44
2022-08-24T08:11:42.285Z,28.62
2022-08-24T08:12:42.318Z,28.74
2022-08-24T08:14:42.341Z,28.81
2022-08-24T08:15:42.367Z,28.86
2022-08-24T08:16:42.326Z,28.84
2022-08-24T08:17:42.362Z,28.87
2022-08-24T08:18:42.306Z,28.89
2022-08-24T08:19:42.315Z,28.90
2022-08-24T08:20:42.318Z,28.98
2022-08-24T08:21:42.318Z,29.06
2022-08-24T08:22:42.373Z,28.98
2022-08-24T08:23:42.337Z,29.06
2022-08-24T08:24:42.362Z,29.00
2022-08-24T08:25:46.876Z,28.94
2022-08-24T08:26:42.374Z,29.09
2022-08-24T08:28:42.859Z,28.93
2022-08-24T08:29:42.404Z,28.90
2022-08-24T08:30:42.420Z,28.93
2022-08-24T08:31:42.383Z,28.98
2022-08-24T08:32:42.418Z,29.06
2022-08-24T08:33:42.432Z,29.17
2022-08-24T08:34:42.423Z,29.29
2022-08-24T08:35:42.399Z,29.33
2022-08-24T08:36:42.407Z,29.44
2022-08-24T08:37:42.407Z,29.62
2022-08-24T08:38:42.421Z,29.80
2022-08-24T08:39:42.429Z,29.98
2022-08-24T08:40:42.457Z,30.08
2022-08-24T08:41:42.465Z,30.08
2022-08-24T08:42:42.483Z,30.22
2022-08-24T08:43:42.459Z,30.35
2022-08-24T08:44:42.490Z,30.30
2022-08-24T08:45:42.585Z,30.36
2022-08-24T08:46:42.526Z,30.59
2022-08-24T08:47:42.487Z,30.52
2022-08-24T08:48:42.481Z,30.46
2022-08-24T08:49:42.491Z,30.58
2022-08-24T08:50:42.493Z,30.53
2022-08-24T08:51:42.545Z,30.75
2022-08-24T08:52:42.523Z,30.60
2022-08-24T08:53:42.532Z,30.65
2022-08-24T08:54:44.274Z,30.68
2022-08-24T08:55:42.530Z,30.74
2022-08-24T08:56:42.543Z,30.92
2022-08-24T08:57:42.551Z,30.99
2022-08-24T08:58:42.576Z,31.10
2022-08-24T08:59:42.588Z,31.23
2022-08-24T09:00:42.568Z,31.42
2022-08-24T09:01:46.823Z,31.57
2022-08-24T09:02:42.615Z,31.41
2022-08-24T09:03:42.641Z,31.46
2022-08-24T09:04:42.725Z,31.57
2022-08-24T09:05:42.669Z,31.66
2022-08-24T09:06:42.610Z,31.91
2022-08-24T09:07:42.651Z,32.13
2022-08-24T09:08:42.641Z,32.13
2022-08-24T09:09:42.685Z,32.04
2022-08-24T09:10:42.663Z,32.14
2022-08-24T09:11:42.664Z,32.16
2022-08-24T09:12:42.696Z,32.23
2022-08-24T09:13:42.673Z,32.14
2022-08-24T09:14:42.708Z,32.21
2022-08-24T09:15:42.732Z,32.17
2022-08-24T09:16:42.782Z,32.09
2022-08-24T09:17:42.721Z,32.26
2022-08-24T09:18:42.718Z,32.19
2022-08-24T09:19:42.798Z,32.27
2022-08-24T09:20:42.762Z,32.43
2022-08-24T09:21:42.777Z,32.45
2022-08-24T09:22:42.795Z,32.46
2022-08-24T09:23:42.761Z,32.53
2022-08-24T09:24:42.783Z,32.58
2022-08-24T09:25:42.822Z,32.77
2022-08-24T09:26:42.797Z,32.95
2022-08-24T09:27:42.802Z,33.13
2022-08-24T09:28:43.894Z,33.22
2022-08-24T09:29:42.947Z,33.30
2022-08-24T09:30:44.818Z,33.39
2022-08-24T09:31:42.898Z,33.60
2022-08-24T09:32:42.863Z,33.70
2022-08-24T09:33:42.895Z,33.64
2022-08-24T09:34:42.884Z,33.92
2022-08-24T09:35:42.892Z,33.88
2022-08-24T09:36:42.896Z,33.91
2022-08-24T09:37:43.762Z,33.84
2022-08-24T09:38:42.924Z,34.00
2022-08-24T09:39:43.007Z,33.91
2022-08-24T09:40:42.955Z,33.97
2022-08-24T09:41:42.946Z,33.76
2022-08-24T09:42:42.972Z,33.79
2022-08-24T09:43:43.011Z,33.84
2022-08-24T09:44:42.990Z,33.93
2022-08-24T09:45:43.026Z,33.93
2022-08-24T09:46:43.024Z,34.03
2022-08-24T09:47:43.023Z,34.26
2022-08-24T09:48:43.060Z,34.30
2022-08-24T09:49:43.043Z,34.47
2022-08-24T09:50:43.075Z,34.25
2022-08-24T09:51:43.069Z,34.15
2022-08-24T09:52:43.080Z,34.07
2022-08-24T09:53:43.094Z,34.22
2022-08-24T09:54:43.134Z,34.38
2022-08-24T09:55:43.120Z,34.60
2022-08-24T09:56:43.124Z,34.78
2022-08-24T09:58:01.097Z,34.85
2022-08-24T09:58:43.177Z,34.92
2022-08-24T09:59:43.177Z,35.05
2022-08-24T10:00:43.364Z,35.13
2022-08-24T10:01:43.221Z,35.39
2022-08-24T10:02:43.244Z,35.42
2022-08-24T10:03:43.264Z,35.42
2022-08-24T10:04:43.345Z,35.44
2022-08-24T10:05:43.292Z,35.28
2022-08-24T10:06:43.255Z,35.23
2022-08-24T10:07:43.301Z,35.20
2022-08-24T10:08:43.319Z,35.24
2022-08-24T10:09:43.312Z,35.16
2022-08-24T10:10:43.304Z,35.17
2022-08-24T10:11:43.367Z,35.39
2022-08-24T10:12:43.332Z,35.48
2022-08-24T10:13:43.354Z,35.35
2022-08-24T10:14:43.385Z,35.47
2022-08-24T10:15:43.359Z,35.51
2022-08-24T10:16:43.453Z,35.70
2022-08-24T10:17:43.406Z,35.87
2022-08-24T10:18:43.420Z,35.98
2022-08-24T10:19:43.465Z,35.94
2022-08-24T10:20:43.430Z,35.98
2022-08-24T10:21:43.445Z,36.02
2022-08-24T10:22:43.466Z,36.07
2022-08-24T10:23:43.478Z,36.20
2022-08-24T10:24:43.524Z,36.23
2022-08-24T10:25:43.526Z,36.29
2022-08-24T10:26:44.030Z,36.33
2022-08-24T10:27:43.540Z,36.56
2022-08-24T10:28:43.560Z,36.63
2022-08-24T10:29:43.554Z,36.66
2022-08-24T10:30:43.565Z,36.79
2022-08-24T10:31:43.697Z,36.93
2022-08-24T10:32:43.712Z,36.54
2022-08-24T10:33:43.648Z,36.25
2022-08-24T10:34:43.646Z,36.02
2022-08-24T10:35:43.639Z,35.77
2022-08-24T10:36:43.647Z,35.63
2022-08-24T10:37:43.809Z,35.36
2022-08-24T10:38:43.685Z,35.28
2022-08-24T10:39:43.851Z,35.21
2022-08-24T10:40:43.761Z,35.19
2022-08-24T10:41:43.734Z,35.32
2022-08-24T10:42:43.783Z,35.42
2022-08-24T10:43:43.762Z,35.53
2022-08-24T10:44:43.802Z,35.47
2022-08-24T10:45:43.809Z,35.50
2022-08-24T10:46:43.812Z,35.50
2022-08-24T10:47:43.809Z,35.50
2022-08-24T10:48:43.804Z,35.48
2022-08-24T10:49:43.867Z,35.50
2022-08-24T10:50:43.846Z,35.50
2022-08-24T10:51:43.885Z,35.51
2022-08-24T10:52:43.879Z,35.56
2022-08-24T10:53:43.893Z,35.44
2022-08-24T10:54:43.896Z,35.50
2022-08-24T10:55:43.920Z,35.57
2022-08-24T10:56:43.921Z,35.63
2022-08-24T10:57:43.914Z,35.75
2022-08-24T10:58:43.953Z,35.81
2022-08-24T10:59:43.968Z,35.77
2022-08-24T11:00:44.000Z,35.90
2022-08-24T11:01:44.021Z,36.00
2022-08-24T11:02:43.998Z,36.20
2022-08-24T11:03:44.009Z,36.02
2022-08-24T11:04:43.998Z,36.04
2022-08-24T11:05:44.030Z,36.04
2022-08-24T11:06:44.026Z,36.17
2022-08-24T11:07:44.025Z,36.09
2022-08-24T11:08:44.066Z,36.14
2022-08-24T11:09:44.082Z,36.13
2022-08-24T11:10:44.104Z,36.22
2022-08-24T11:11:44.115Z,36.40
2022-08-24T11:12:44.100Z,36.47
2022-08-24T11:13:44.109Z,36.60
2022-08-24T11:14:44.160Z,36.71
2022-08-24T11:15:44.162Z,36.88
2022-08-24T11:16:44.233Z,36.78
2022-08-24T11:17:44.195Z,36.44
2022-08-24T11:18:44.167Z,35.75
2022-08-24T11:19:44.234Z,35.70
2022-08-24T11:20:44.215Z,35.85
2022-08-24T11:21:44.212Z,36.09
2022-08-24T11:22:44.215Z,36.32
2022-08-24T11:23:44.252Z,36.32
2022-08-24T11:24:44.309Z,36.57
2022-08-24T11:25:44.251Z,36.82
2022-08-24T11:26:44.299Z,36.94
2022-08-24T11:27:44.288Z,37.01
2022-08-24T11:28:44.301Z,37.07
2022-08-24T11:29:44.341Z,36.96
2022-08-24T11:30:44.323Z,36.93
2022-08-24T11:31:44.377Z,36.63
2022-08-24T11:32:44.367Z,36.54
2022-08-24T11:33:44.423Z,36.36
2022-08-24T11:34:44.406Z,36.22
2022-08-24T11:35:44.377Z,36.22
2022-08-24T11:36:44.428Z,36.07
2022-08-24T11:37:44.457Z,35.91
2022-08-24T11:38:45.705Z,35.81
2022-08-24T11:39:44.488Z,35.76
2022-08-24T11:40:44.480Z,35.73
2022-08-24T11:41:44.466Z,35.72
2022-08-24T11:42:44.475Z,35.69
2022-08-24T11:43:44.517Z,35.65
2022-08-24T11:44:44.497Z,35.57
2022-08-24T11:45:44.516Z,35.57
2022-08-24T11:46:44.552Z,35.53
2022-08-24T11:47:44.555Z,35.42
2022-08-24T11:48:44.584Z,35.41
2022-08-24T11:49:44.575Z,35.36
2022-08-24T11:50:44.607Z,35.32
2022-08-24T11:51:44.608Z,35.36
2022-08-24T11:52:44.615Z,35.47
2022-08-24T11:53:44.601Z,35.34
2022-08-24T11:54:44.601Z,35.29
2022-08-24T11:55:47.416Z,35.29
2022-08-24T11:56:44.627Z,35.26
2022-08-24T11:57:47.620Z,35.16
2022-08-24T11:58:44.674Z,35.21
2022-08-24T11:59:44.700Z,35.10
2022-08-24T12:00:44.675Z,35.05
2022-08-24T12:01:44.974Z,35.10
2022-08-24T12:02:44.758Z,35.20
2022-08-24T12:03:45.925Z,35.07
2022-08-24T12:04:44.728Z,35.01
2022-08-24T12:05:44.702Z,34.92
2022-08-24T12:06:44.717Z,34.94
2022-08-24T12:07:44.732Z,34.92
2022-08-24T12:08:44.742Z,34.98
2022-08-24T12:09:44.813Z,35.02
2022-08-24T12:10:44.763Z,35.01
2022-08-24T12:11:44.765Z,35.10
2022-08-24T12:12:44.788Z,35.13
2022-08-24T12:13:45.122Z,35.19
2022-08-24T12:14:44.817Z,35.20
2022-08-24T12:15:48.697Z,35.19
2022-08-24T12:16:44.853Z,35.20
2022-08-24T12:17:44.842Z,35.20
2022-08-24T12:18:44.811Z,35.14
2022-08-24T12:19:44.825Z,35.13
2022-08-24T12:20:48.143Z,35.05
2022-08-24T12:21:44.862Z,35.04
2022-08-24T12:22:44.888Z,35.07
2022-08-24T12:23:44.855Z,35.07
2022-08-24T12:24:44.923Z,34.83
2022-08-24T12:25:44.898Z,34.78
2022-08-24T12:26:44.889Z,34.85
2022-08-24T12:27:44.929Z,34.79
2022-08-24T12:28:44.893Z,34.90
2022-08-24T12:29:44.896Z,34.87
2022-08-24T12:30:44.946Z,34.92
2022-08-24T12:31:45.027Z,35.04
2022-08-24T12:32:44.935Z,35.02
2022-08-24T12:33:44.926Z,35.05
2022-08-24T12:34:44.933Z,34.99
2022-08-24T12:35:44.978Z,35.01
2022-08-24T12:36:44.974Z,35.01
2022-08-24T12:37:44.983Z,34.94
2022-08-24T12:38:45.035Z,34.78
2022-08-24T12:39:45.088Z,34.66
2022-08-24T12:40:44.995Z,34.63
2022-08-24T12:41:44.984Z,34.57
2022-08-24T12:42:48.642Z,34.45
2022-08-24T12:43:45.074Z,34.60
2022-08-24T12:44:45.032Z,34.75
2022-08-24T12:45:45.016Z,34.90
2022-08-24T12:46:45.095Z,34.85
2022-08-24T12:47:45.030Z,34.85
2022-08-24T12:48:45.042Z,34.64
2022-08-24T12:49:46.065Z,34.63
2022-08-24T12:50:45.375Z,34.63
2022-08-24T12:51:45.082Z,34.59
2022-08-24T12:52:45.116Z,34.62
2022-08-24T12:53:45.684Z,34.67
2022-08-24T12:54:45.097Z,34.70